Tiempo atmosférico en la estación meteorológica de Molina de Segura, Murcia (170 m.)



Fecha
DESCASC
Temp. máxima en grados centígrados (hora)
DESCASC
Temp. mínima en grados centígrados (hora)
DESCASC
Temp. media en grados centígrados
DESCASC
Racha de viento máxima en m/sg (hora)
DESCASC
Velocidad máxima media en intervalos de 10 minutos(hora)
DESCASC
Precipitaciones diarias en mm
DESCASC
Precipitaciones de 00:00 a 06:00 en mm
DESCASC
Precipitaciones de 06:00 a 12:00 en mm
DESCASC
Precipitaciones de 12:00 a 18:00 en mm
DESCASC
Precipitaciones de 18:00 a 24:00 en mm
DESCASC
05-12-2019 15.7 (14:00) 8.1 (08:10) 11.9 6.94 (03:10) 4.17 (03:00) 0.2 0.2 0 0 0
04-12-2019 12.9 (16:00) 9.7 (02:20) 11.3 13.33 (03:10) 8.06 (05:20) 0.8 0 0.6 0.2 0
03-12-2019 12.7 (12:20) 9.7 (18:20) 11.2 8.89 (13:30) 5.28 (13:30) 22.4 18 0 4.4 0
02-12-2019 14.5 (14:20) 11.1 (00:00) 12.8 11.94 (03:40) 6.11 (03:30) 11.4 0.8 2.2 1.6 6.8
01-12-2019 19.1 (15:40) 8.1 (00:00) 13.6 6.67 (17:50) 3.89 (20:50) 0 0 0 0 0
30-11-2019 20.5 (15:00) 9.9 (00:00) 15.2 8.06 (08:40) 5.28 (11:40) 0 0 0 0 0
29-11-2019 21.2 (13:30) 11.2 (00:00) 16.2 10.83 (11:50) 6.67 (10:20) 0 0 0 0 0
28-11-2019 20.1 (15:50) 10.9 (00:00) 15.5 9.44 (23:40) 5.28 (04:20) 0 0 0 0 0
27-11-2019 21 (14:10) 10.9 (00:00) 15.9 12.22 (18:10) 8.33 (17:30) 0 0 0 0 0
26-11-2019 21.3 (15:00) 10.6 (00:00) 15.9 8.33 (11:40) 5 (14:10) 0 0 0 0 0
25-11-2019 19.8 (16:20) 11.1 (00:00) 15.4 13.89 (05:00) 7.78 (05:10) 0 0 0 0 0
24-11-2019 15.1 (16:20) 10 (00:00) 12.6 18.33 (12:10) 11.94 (12:00) 0 0 0 0 0
23-11-2019 16.4 (14:20) 8.8 (00:00) 12.6 21.11 (11:30) 12.22 (11:30) 0.2 0 0.2 0 0
22-11-2019 13.2 (14:50) 7.2 (00:00) 10.2 3.61 (15:00) 2.78 (07:00) 8.2 0 1 2 5.2
21-11-2019 15.1 (15:30) 6.8 (00:00) 11 5.56 (04:30) 3.89 (04:30) 0.6 0 0 0 0.6
20-11-2019 15.7 (15:00) 4.4 (00:00) 10 5.28 (10:20) 3.89 (05:50) 0.6 0 0 0 0.6
19-11-2019 15.7 (15:50) 5.8 (00:00) 10.8 10.83 (10:00) 6.67 (11:00) 0 0 0 0 0
18-11-2019 15.2 (15:30) 8.6 (00:00) 11.9 11.39 (15:40) 7.78 (11:10) 2.6 2.6 0 0 0
17-11-2019 16.5 (15:40) 3.8 (00:00) 10.1 8.89 (01:30) 5.28 (01:10) 0 0 0 0 0
16-11-2019 14.5 (15:40) 7.8 (00:00) 11.2 13.61 (13:10) 8.89 (13:30) 0 0 0 0 0
15-11-2019 13.7 (15:40) 7.6 (00:00) 10.6 11.67 (01:00) 7.5 (13:30) 0 0 0 0 0
14-11-2019 15.9 (12:40) 8.8 (00:00) 12.3 14.17 (14:20) 9.72 (14:20) 1 0 0 1 0
13-11-2019 22.1 (15:20) 10.9 (00:00) 16.5 16.67 (13:40) 10 (13:40) 0 0 0 0 0
12-11-2019 17.6 (15:30) 9 (00:00) 13.3 12.78 (15:30) 8.33 (16:10) 0 0 0 0 0
11-11-2019 16.7 (16:20) 8.8 (06:50) 12.8 16.94 (01:10) 11.67 (01:10) 0 0 0 0 0
10-11-2019 15.9 (15:30) 11.1 (00:00) 13.5 20.56 (17:50) 13.06 (17:50) 0.2 0 0.2 0 0
09-11-2019 18.9 (15:10) 9.7 (00:00) 14.3 14.72 (05:50) 9.17 (11:40) 0 0 0 0 0
08-11-2019 16.8 (15:40) 9.9 (00:00) 13.3 16.94 (11:00) 11.11 (11:10) 0 0 0 0 0
07-11-2019 20.6 (14:10) 9.4 (00:00) 15 13.89 (19:00) 9.17 (19:00) 0 0 0 0 0
06-11-2019 19.7 (15:40) 11.8 (00:00) 15.8 15.56 (04:40) 9.44 (04:40) 0 0 0 0 0

Gráficas

Temp. máximas Temp. mínimas Temp. medias Precipitaciones Rachas de viento máximas Velocidades máximas media en intervalos de 10 minutos

Datos horarios

Fecha y hora oficial Temperatura (ºC) Velocidad del viento (km/h) Dirección del viento Racha (km/h) Dirección de racha Precipitación (mm) Presión (hPa) Tendencia (hPa) Humedad (%)
2019-12-05 23:00:00 11.3 3 Norte 5 Norte 0 -- -- 92
2019-12-05 22:00:00 11.7 0 Calma 10 Este 0 -- -- 91
2019-12-05 21:00:00 12 5 Nordeste 10 Este 0 -- -- 90
2019-12-05 20:00:00 12.4 6 Este 13 Este 0 -- -- 91
2019-12-05 19:00:00 12.7 5 Nordeste 14 Este 0 -- -- 91
2019-12-05 18:00:00 13.1 9 Sudeste 15 Sudeste 0 -- -- 88
2019-12-05 17:00:00 14.8 10 Sudeste 20 Sudeste 0 -- -- 77
2019-12-05 16:00:00 15.5 8 Sudeste 16 Este 0 -- -- 74
2019-12-05 15:00:00 15.6 7 Sudeste 16 Sudeste 0 -- -- 75
2019-12-05 14:00:00 15.7 9 Sudeste 16 Sudeste 0 -- -- 75
2019-12-05 13:00:00 14.8 5 Este 14 Nordeste 0 -- -- 76
2019-12-05 12:00:00 13.5 7 Este 13 Este 0 -- -- 81
2019-12-05 11:00:00 12 4 Este 8 Este 0 -- -- 84
2019-12-05 10:00:00 10.1 3 Norte 7 Noroeste 0 -- -- 92
2019-12-05 09:00:00 8.7 4 Norte 8 Norte 0 -- -- 95
2019-12-05 08:00:00 8.2 3 Noroeste 5 Noroeste 0 -- -- 92
2019-12-05 07:00:00 9 2 Noroeste 13 Norte 0 -- -- 88
2019-12-05 06:00:00 9.6 9 Noroeste 12 Norte 0 -- -- 89
2019-12-05 05:00:00 10.1 8 Noroeste 17 Norte 0 -- -- 90
2019-12-05 04:00:00 10.4 9 Noroeste 25 Noroeste 0.2 -- -- 91
2019-12-05 03:00:00 11.4 15 Noroeste 23 Noroeste 0 -- -- 83
2019-12-05 02:00:00 11.5 12 Noroeste 20 Noroeste 0 -- -- 79
2019-12-05 01:00:00 11.5 10 Noroeste 18 Noroeste 0 -- -- 79
2019-12-05 00:00:00 11.4 9 Noroeste 21 Noroeste 0 -- -- 80
2019-12-04 23:00:00 11.4 12 Oeste 22 Noroeste 0 -- -- 80
2019-12-04 22:00:00 11.9 8 Noroeste 21 Noroeste 0 -- -- 78
2019-12-04 21:00:00 11.7 10 Noroeste 26 Noroeste 0 -- -- 79
2019-12-04 20:00:00 11.6 10 Noroeste 23 Noroeste 0 -- -- 81
2019-12-04 19:00:00 10.8 6 Noroeste 14 Noroeste 0 -- -- 87
2019-12-04 18:00:00 11.6 6 Norte 24 Noroeste 0 -- -- 83
2019-12-04 17:00:00 12.1 14 Noroeste 26 Oeste 0 -- -- 81
2019-12-04 16:00:00 12.9 8 Noroeste 22 Noroeste 0 -- -- 80
2019-12-04 15:00:00 11.9 18 Noroeste 33 Noroeste 0.2 -- -- 84
2019-12-04 14:00:00 11.3 19 Noroeste 36 Noroeste 0 -- -- 87
2019-12-04 13:00:00 11.4 21 Noroeste 37 Noroeste 0 -- -- 84
2019-12-04 12:00:00 10.8 17 Noroeste 31 Noroeste 0.2 -- -- 87
2019-12-04 11:00:00 10.6 15 Noroeste 28 Noroeste 0.4 -- -- 88
2019-12-04 10:00:00 11.6 17 Noroeste 30 Noroeste 0 -- -- 76
2019-12-04 09:00:00 11.2 13 Noroeste 32 Noroeste 0 -- -- 78
2019-12-04 08:00:00 11.1 19 Noroeste 37 Noroeste 0 -- -- 78
2019-12-04 07:00:00 10.8 21 Noroeste 36 Noroeste 0 -- -- 81
2019-12-04 06:00:00 10.6 24 Noroeste 46 Noroeste 0 -- -- 82
2019-12-04 05:00:00 10.5 24 Noroeste 45 Noroeste 0 -- -- 82
2019-12-04 04:00:00 10.5 26 Noroeste 48 Noroeste 0 -- -- 82
2019-12-04 03:00:00 9.8 23 Noroeste 39 Noroeste 0 -- -- 85
2019-12-04 02:00:00 10.1 23 Noroeste 36 Noroeste 0 -- -- 83
2019-12-04 01:00:00 10.7 16 Norte 30 Norte 0 -- -- 79
2019-12-04 00:00:00 10.5 17 Norte 29 Noroeste 0 -- -- 79
2019-12-03 23:00:00 10.5 18 Norte 28 Noroeste 0 -- -- 77
2019-12-03 22:00:00 10.7 16 Norte 27 Norte 0 -- -- 77
2019-12-03 21:00:00 10.5 15 Norte 26 Norte 0 -- -- 76
2019-12-03 20:00:00 10.3 12 Nordeste 31 Nordeste 0 -- -- 79
2019-12-03 19:00:00 9.9 13 Nordeste 31 Nordeste 0 -- -- 84
2019-12-03 18:00:00 9.9 8 Nordeste 21 Nordeste 0.6 -- -- 92
2019-12-03 17:00:00 10.7 6 Sudeste 15 Sudeste 1.6 -- -- 95
2019-12-03 16:00:00 10.8 6 Este 13 Nordeste 0.2 -- -- 94
2019-12-03 15:00:00 10.8 2 Este 24 Este 1.6 -- -- 96
2019-12-03 14:00:00 11.2 15 Sudeste 32 Este 0.4 -- -- 92
2019-12-03 13:00:00 12.5 15 Sudeste 26 Sudeste 0 -- -- 82
2019-12-03 12:00:00 12.4 15 Este 28 Este 0 -- -- 82
2019-12-03 11:00:00 12 10 Sudeste 24 Este 0 -- -- 86
2019-12-03 10:00:00 11.8 8 Este 18 Este 0 -- -- 82
2019-12-03 09:00:00 10.9 3 Nordeste 13 Este 0 -- -- 88
2019-12-03 08:00:00 10.4 5 Este 9 Este 0 -- -- 91
2019-12-03 07:00:00 10.3 3 Nordeste 5 Nordeste 0 -- -- 96
2019-12-03 06:00:00 10.3 2 Oeste 9 Nordeste 0 -- -- 96
2019-12-03 05:00:00 10.3 6 Nordeste 15 Nordeste 0 -- -- 96
2019-12-03 04:00:00 10.1 8 Nordeste 13 Nordeste 0 -- -- 98
2019-12-03 03:00:00 10.9 4 Noroeste 8 Sudeste 3 -- -- 99
2019-12-03 02:00:00 11.2 3 Nordeste 30 Este 9 -- -- 99
2019-12-03 01:00:00 11.4 17 Este 29 Este 6 -- -- 98
2019-12-03 00:00:00 11.6 6 Este 10 Este 0.4 -- -- 98
2019-12-02 23:00:00 11.5 6 Este 15 Este 1.6 -- -- 97
2019-12-02 22:00:00 11.8 6 Este 18 Nordeste 0.8 -- -- 97
2019-12-02 21:00:00 12.1 5 Este 19 Este 1.2 -- -- 97
2019-12-02 20:00:00 12.3 6 Este 23 Este 1.2 -- -- 97
2019-12-02 19:00:00 12.5 14 Este 25 Este 1.6 -- -- 95
2019-12-02 18:00:00 13 7 Este 14 Sudeste 0.2 -- -- 93
2019-12-02 17:00:00 13.7 5 Sudeste 10 Sudeste 1.4 -- -- 89
2019-12-02 16:00:00 14.4 4 Sur 12 Este 0 -- -- 82
2019-12-02 15:00:00 14.5 9 Nordeste 15 Nordeste 0 -- -- 74
2019-12-02 14:00:00 14.3 2 Este 5 Sudeste 0 -- -- 82
2019-12-02 13:00:00 13.7 3 Este 15 Nordeste 0 -- -- 83
2019-12-02 12:00:00 12.9 8 Este 15 Nordeste 0 -- -- 85
2019-12-02 11:00:00 12.1 0 Calma 10 Norte 0.2 -- -- 96
2019-12-02 10:00:00 11.4 4 Noroeste 10 Norte 0.2 -- -- 95
2019-12-02 09:00:00 11.6 2 Oeste 6 Sur 1.8 -- -- 91
2019-12-02 08:00:00 11.9 0 Calma 14 Este 0 -- -- 87
2019-12-02 07:00:00 12 7 Este 27 Sudeste 0 -- -- 85
2019-12-02 06:00:00 12.3 11 Este 27 Este 0 -- -- 84
2019-12-02 05:00:00 12.6 15 Este 38 Este 0 -- -- 85
2019-12-02 04:00:00 12.1 19 Este 43 Este 0 -- -- 87
2019-12-02 03:00:00 12.4 14 Este 25 Este 0.8 -- -- 91
2019-12-02 02:00:00 12.7 8 Este 18 Este 0 -- -- 82
2019-12-02 01:00:00 12.9 9 Este 19 Este 0 -- -- 81
2019-12-02 00:00:00 11.1 4 Nordeste 13 Este 0 -- -- 90
2019-12-01 23:00:00 11.6 5 Este 15 Nordeste 0 -- -- 88
2019-12-01 22:00:00 12.5 10 Este 22 Este 0 -- -- 87
2019-12-01 21:00:00 12.8 13 Este 21 Nordeste 0 -- -- 88
2019-12-01 20:00:00 12.9 9 Este 22 Este 0 -- -- 89
2019-12-01 19:00:00 13.9 11 Este 23 Este 0 -- -- 86
2019-12-01 18:00:00 15.7 12 Este 24 Este 0 -- -- 76
2019-12-01 17:00:00 17.8 6 Sudeste 14 Sudeste 0 -- -- 56
2019-12-01 16:00:00 18.9 3 Noroeste 10 Oeste 0 -- -- 48
2019-12-01 15:00:00 18.6 6 Norte 13 Nordeste 0 -- -- 50
2019-12-01 14:00:00 18.3 6 Noroeste 19 Noroeste 0 -- -- 54
2019-12-01 13:00:00 17.8 12 Noroeste 21 Noroeste 0 -- -- 58
2019-12-01 12:00:00 16.4 8 Noroeste 15 Noroeste 0 -- -- 65
2019-12-01 11:00:00 14.7 5 Noroeste 12 Oeste 0 -- -- 69
2019-12-01 10:00:00 12.9 5 Noroeste 17 Oeste 0 -- -- 81
2019-12-01 09:00:00 10.8 9 Noroeste 14 Noroeste 0 -- -- 88
2019-12-01 08:00:00 8.2 0 Calma 9 Oeste 0 -- -- 91
2019-12-01 07:00:00 8.6 3 Oeste 10 Noroeste 0 -- -- 91
2019-12-01 06:00:00 9.2 3 Sudoeste 9 Oeste 0 -- -- 88
2019-12-01 05:00:00 10.1 7 Oeste 14 Oeste 0 -- -- 87
2019-12-01 04:00:00 10.3 4 Noroeste 19 Norte 0 -- -- 86
2019-12-01 03:00:00 10.9 8 Norte 17 Noroeste 0 -- -- 86
2019-12-01 02:00:00 10.6 13 Noroeste 15 Noroeste 0 -- -- 88
2019-12-01 01:00:00 11.4 11 Noroeste 19 Noroeste 0 -- -- 88
2019-12-01 00:00:00 9.9 6 Noroeste 10 Norte 0 -- -- 92
2019-11-30 23:00:00 10.4 5 Norte 9 Noroeste 0 -- -- 90
2019-11-30 22:00:00 11.5 0 Calma 11 Norte 0 -- -- 91
2019-11-30 21:00:00 11.4 4 Norte 9 Noroeste 0 -- -- 86
2019-11-30 20:00:00 12.7 2 Norte 7 Noroeste 0 -- -- 81
2019-11-30 19:00:00 14.2 0 Calma 6 Noroeste 0 -- -- 78
2019-11-30 18:00:00 17.3 2 Este 3 Este 0 -- -- 68
2019-11-30 17:00:00 19.4 0 Calma 6 Nordeste 0 -- -- 61
2019-11-30 16:00:00 20.1 2 Sudeste 8 Sudoeste 0 -- -- 57
2019-11-30 15:00:00 20.5 4 Oeste 13 Oeste 0 -- -- 57
2019-11-30 14:00:00 19.5 8 Oeste 15 Noroeste 0 -- -- 59
2019-11-30 13:00:00 18.2 8 Noroeste 19 Oeste 0 -- -- 64
2019-11-30 12:00:00 16.6 12 Noroeste 29 Noroeste 0 -- -- 69
2019-11-30 11:00:00 14.9 13 Noroeste 22 Noroeste 0 -- -- 74
2019-11-30 10:00:00 13.4 9 Noroeste 22 Noroeste 0 -- -- 80
2019-11-30 09:00:00 12.1 14 Noroeste 29 Noroeste 0 -- -- 83
2019-11-30 08:00:00 11.3 17 Noroeste 26 Noroeste 0 -- -- 87
2019-11-30 07:00:00 11.1 5 Noroeste 14 Noroeste 0 -- -- 86
2019-11-30 06:00:00 12.4 12 Norte 18 Noroeste 0 -- -- 83
2019-11-30 05:00:00 13 11 Noroeste 20 Noroeste 0 -- -- 81
2019-11-30 04:00:00 13 14 Noroeste 22 Noroeste 0 -- -- 81
2019-11-30 03:00:00 13.4 16 Noroeste 22 Noroeste 0 -- -- 80
2019-11-30 02:00:00 13.5 13 Noroeste 21 Noroeste 0 -- -- 80
2019-11-30 01:00:00 13.6 11 Noroeste 17 Norte 0 -- -- 79
2019-11-30 00:00:00 13.5 10 Norte 15 Noroeste 0 -- -- 81
2019-11-29 23:00:00 13.9 11 Noroeste 15 Noroeste 0 -- -- 80
2019-11-29 22:00:00 13.5 8 Noroeste 12 Noroeste 0 -- -- 82
2019-11-29 21:00:00 13.6 5 Noroeste 11 Noroeste 0 -- -- 81
2019-11-29 20:00:00 14.1 0 Calma 9 Noroeste 0 -- -- 78
2019-11-29 19:00:00 14.8 4 Norte 8 Noroeste 0 -- -- 75
2019-11-29 18:00:00 17.5 0 Calma 5 Sur 0 -- -- 67
2019-11-29 17:00:00 19.3 4 Noroeste 20 Noroeste 0 -- -- 62
2019-11-29 16:00:00 20.5 12 Noroeste 21 Noroeste 0 -- -- 57
2019-11-29 15:00:00 20.4 12 Noroeste 29 Noroeste 0 -- -- 58
2019-11-29 14:00:00 21.1 16 Noroeste 31 Noroeste 0 -- -- 55
2019-11-29 13:00:00 20.9 17 Noroeste 36 Noroeste 0 -- -- 53
2019-11-29 12:00:00 19.5 21 Noroeste 39 Noroeste 0 -- -- 55
2019-11-29 11:00:00 18.2 23 Noroeste 37 Noroeste 0 -- -- 59
2019-11-29 10:00:00 16 21 Oeste 33 Oeste 0 -- -- 64
2019-11-29 09:00:00 14.2 17 Oeste 32 Sudoeste 0 -- -- 67
2019-11-29 08:00:00 12.6 18 Sudoeste 27 Oeste 0 -- -- 70
2019-11-29 07:00:00 11.8 13 Sudoeste 26 Oeste 0 -- -- 71
2019-11-29 06:00:00 11.9 14 Oeste 30 Noroeste 0 -- -- 69
2019-11-29 05:00:00 11.3 14 Oeste 30 Oeste 0 -- -- 72
2019-11-29 04:00:00 11.3 13 Oeste 32 Noroeste 0 -- -- 74
2019-11-29 03:00:00 12.1 16 Oeste 31 Noroeste 0 -- -- 71
2019-11-29 02:00:00 12.5 15 Oeste 28 Noroeste 0 -- -- 69
2019-11-29 01:00:00 13.9 13 Noroeste 37 Noroeste 0 -- -- 62
2019-11-29 00:00:00 13.9 15 Noroeste 34 Noroeste 0 -- -- 62
2019-11-28 23:00:00 13.8 18 Noroeste 28 Noroeste 0 -- -- 66
2019-11-28 22:00:00 11.8 8 Noroeste 17 Norte 0 -- -- 78
2019-11-28 21:00:00 11.3 10 Noroeste 15 Noroeste 0 -- -- 82
2019-11-28 20:00:00 11.9 2 Sudoeste 10 Norte 0 -- -- 77
2019-11-28 19:00:00 13.2 5 Norte 9 Norte 0 -- -- 73
2019-11-28 18:00:00 16.5 4 Norte 8 Oeste 0 -- -- 62
2019-11-28 17:00:00 18.7 2 Sudoeste 9 Oeste 0 -- -- 55
2019-11-28 16:00:00 20 4 Sudoeste 14 Oeste 0 -- -- 49
2019-11-28 15:00:00 19.8 6 Noroeste 19 Oeste 0 -- -- 49
2019-11-28 14:00:00 19 11 Noroeste 21 Noroeste 0 -- -- 51
2019-11-28 13:00:00 18.4 14 Noroeste 24 Noroeste 0 -- -- 51
2019-11-28 12:00:00 17.2 15 Noroeste 25 Noroeste 0 -- -- 56
2019-11-28 11:00:00 16 12 Noroeste 22 Noroeste 0 -- -- 59
2019-11-28 10:00:00 14.3 11 Oeste 18 Oeste 0 -- -- 63
2019-11-28 09:00:00 11.5 10 Oeste 17 Oeste 0 -- -- 71
2019-11-28 08:00:00 12.4 8 Noroeste 24 Oeste 0 -- -- 64
2019-11-28 07:00:00 12.8 16 Oeste 22 Oeste 0 -- -- 63
2019-11-28 06:00:00 13.1 13 Oeste 21 Oeste 0 -- -- 62
2019-11-28 05:00:00 12.9 7 Oeste 31 Oeste 0 -- -- 63
2019-11-28 04:00:00 14.1 16 Oeste 30 Oeste 0 -- -- 59
2019-11-28 03:00:00 13.1 6 Oeste 23 Oeste 0 -- -- 63
2019-11-28 02:00:00 13.2 12 Oeste 18 Oeste 0 -- -- 64
2019-11-28 01:00:00 12.9 11 Noroeste 19 Noroeste 0 -- -- 66
2019-11-28 00:00:00 12.8 5 Noroeste 15 Noroeste 0 -- -- 65
2019-11-27 23:00:00 13.8 10 Oeste 21 Noroeste 0 -- -- 61
2019-11-27 22:00:00 14.5 11 Noroeste 27 Noroeste 0 -- -- 58
2019-11-27 21:00:00 16.3 24 Noroeste 37 Noroeste 0 -- -- 52
2019-11-27 20:00:00 16.5 22 Noroeste 40 Noroeste 0 -- -- 51
2019-11-27 19:00:00 17.3 26 Noroeste 44 Noroeste 0 -- -- 48
2019-11-27 18:00:00 17.7 28 Noroeste 44 Noroeste 0 -- -- 47
2019-11-27 17:00:00 18.9 27 Noroeste 42 Noroeste 0 -- -- 45
2019-11-27 16:00:00 20.2 27 Noroeste 43 Noroeste 0 -- -- 45
2019-11-27 15:00:00 21 18 Noroeste 36 Noroeste 0 -- -- 46
2019-11-27 14:00:00 20.9 23 Noroeste 36 Noroeste 0 -- -- 48
2019-11-27 06:00:00 11.1 2 Sudoeste 12 Sudoeste 0 -- -- 88
2019-11-27 05:00:00 11.7 5 Sudoeste 13 Nordeste 0 -- -- 87
2019-11-27 04:00:00 11.8 3 Noroeste 13 Noroeste 0 -- -- 86
2019-11-27 03:00:00 11.9 6 Noroeste 13 Noroeste 0 -- -- 88
2019-11-27 02:00:00 11.9 7 Norte 10 Noroeste 0 -- -- 90
2019-11-27 01:00:00 10.9 4 Oeste 6 Noroeste 0 -- -- 91
2019-11-27 00:00:00 12.3 0 Calma 9 Noroeste 0 -- -- 91
2019-11-26 23:00:00 12.3 5 Oeste 9 Noroeste 0 -- -- 91
2019-11-26 22:00:00 12.4 5 Oeste 9 Norte 0 -- -- 91
2019-11-26 21:00:00 13.7 5 Oeste 13 Sudoeste 0 -- -- 87
2019-11-26 20:00:00 14.5 6 Noroeste 13 Sudoeste 0 -- -- 80
2019-11-26 19:00:00 15 5 Sudoeste 10 Oeste 0 -- -- 76
2019-11-26 18:00:00 16.5 6 Noroeste 10 Oeste 0 -- -- 70
2019-11-26 17:00:00 19.6 5 Sudoeste 13 Sudoeste 0 -- -- 59
2019-11-26 16:00:00 20.4 5 Sudoeste 19 Noroeste 0 -- -- 56
2019-11-26 15:00:00 21.3 12 Oeste 26 Oeste 0 -- -- 53
2019-11-26 14:00:00 20.3 15 Noroeste 26 Noroeste 0 -- -- 55
2019-11-26 13:00:00 19.3 16 Noroeste 27 Oeste 0 -- -- 55
2019-11-26 12:00:00 18.2 12 Noroeste 30 Oeste 0 -- -- 60
2019-11-26 11:00:00 16.5 14 Oeste 22 Oeste 0 -- -- 67
2019-11-26 10:00:00 13.2 6 Oeste 16 Oeste 0 -- -- 79
2019-11-26 09:00:00 12.3 9 Oeste 19 Noroeste 0 -- -- 80
2019-11-26 08:00:00 11.6 13 Noroeste 18 Noroeste 0 -- -- 82
2019-11-26 07:00:00 11.4 8 Noroeste 19 Noroeste 0 -- -- 83
2019-11-26 06:00:00 11.8 9 Norte 20 Oeste 0 -- -- 81
2019-11-26 05:00:00 10.9 7 Oeste 16 Sudoeste 0 -- -- 85
2019-11-26 04:00:00 10.6 6 Noroeste 9 Noroeste 0 -- -- 85
2019-11-26 03:00:00 11.6 3 Oeste 12 Norte 0 -- -- 82
2019-11-26 02:00:00 13.8 6 Noroeste 16 Oeste 0 -- -- 75
2019-11-26 01:00:00 14.9 8 Oeste 28 Noroeste 0 -- -- 71
2019-11-26 00:00:00 14 2 Noroeste 13 Noroeste 0 -- -- 76
2019-11-25 23:00:00 13.6 4 Sudoeste 9 Sudoeste 0 -- -- 77
2019-11-25 22:00:00 14.2 3 Noroeste 9 Oeste 0 -- -- 74
2019-11-25 21:00:00 15.6 2 Sudoeste 14 Oeste 0 -- -- 69
2019-11-25 20:00:00 16.9 10 Oeste 23 Noroeste 0 -- -- 65
2019-11-25 19:00:00 17.3 8 Oeste 19 Oeste 0 -- -- 64
2019-11-25 18:00:00 18.8 12 Oeste 32 Oeste 0 -- -- 60
2019-11-25 17:00:00 19.6 13 Noroeste 32 Noroeste 0 -- -- 59
2019-11-25 16:00:00 19.7 12 Oeste 27 Oeste 0 -- -- 59
2019-11-25 15:00:00 19.4 8 Oeste 24 Oeste 0 -- -- 60
2019-11-25 14:00:00 19 9 Oeste 15 Oeste 0 -- -- 58
2019-11-25 13:00:00 19.1 9 Sudoeste 19 Oeste 0 -- -- 57
2019-11-25 12:00:00 18.1 12 Oeste 25 Noroeste 0 -- -- 59
2019-11-25 11:00:00 15.9 9 Oeste 18 Noroeste 0 -- -- 66
2019-11-25 10:00:00 13.2 11 Oeste 19 Oeste 0 -- -- 71
2019-11-25 09:00:00 12.5 12 Oeste 20 Oeste 0 -- -- 69
2019-11-25 08:00:00 12.7 10 Oeste 30 Oeste 0 -- -- 68
2019-11-25 07:00:00 12.1 15 Oeste 26 Oeste 0 -- -- 70
2019-11-25 06:00:00 13.8 11 Oeste 44 Oeste 0 -- -- 64
2019-11-25 05:00:00 13.5 27 Noroeste 50 Noroeste 0 -- -- 64
2019-11-25 04:00:00 12.9 16 Oeste 41 Noroeste 0 -- -- 66
2019-11-25 03:00:00 11.4 8 Oeste 27 Sudoeste 0 -- -- 69
2019-11-25 02:00:00 11.2 13 Oeste 25 Sudoeste 0 -- -- 67
2019-11-25 01:00:00 11.4 11 Oeste 34 Noroeste 0 -- -- 64
2019-11-25 00:00:00 12.3 22 Noroeste 43 Noroeste 0 -- -- 60
2019-11-24 23:00:00 11.4 17 Noroeste 35 Noroeste 0 -- -- 62
2019-11-24 22:00:00 11.3 8 Oeste 23 Noroeste 0 -- -- 61
2019-11-24 21:00:00 12.1 13 Noroeste 32 Oeste 0 -- -- 57
2019-11-24 20:00:00 12.2 21 Noroeste 40 Noroeste 0 -- -- 54
2019-11-24 19:00:00 11.3 6 Norte 21 Oeste 0 -- -- 59
2019-11-24 18:00:00 13.2 5 Oeste 27 Noroeste 0 -- -- 52
2019-11-24 17:00:00 14.5 8 Noroeste 32 Noroeste 0 -- -- 50
2019-11-24 16:00:00 14.8 21 Noroeste 50 Noroeste 0 -- -- 49
2019-11-24 15:00:00 14.3 30 Noroeste 65 Noroeste 0 -- -- 51
2019-11-24 14:00:00 14.9 31 Noroeste 57 Noroeste 0 -- -- 51
2019-11-24 13:00:00 14.2 26 Noroeste 66 Noroeste 0 -- -- 51
2019-11-24 12:00:00 13.2 43 Noroeste 66 Noroeste 0 -- -- 54
2019-11-24 11:00:00 13.1 41 Noroeste 63 Noroeste 0 -- -- 55
2019-11-24 10:00:00 12 40 Noroeste 62 Noroeste 0 -- -- 58
2019-11-24 09:00:00 11 24 Noroeste 43 Noroeste 0 -- -- 61
2019-11-24 08:00:00 10.4 17 Noroeste 31 Noroeste 0 -- -- 62
2019-11-24 07:00:00 10.3 20 Noroeste 33 Oeste 0 -- -- 63
2019-11-24 06:00:00 10.5 21 Noroeste 38 Noroeste 0 -- -- 63
2019-11-24 05:00:00 10.4 22 Noroeste 35 Noroeste 0 -- -- 63
2019-11-24 04:00:00 11.2 24 Noroeste 42 Noroeste 0 -- -- 59
2019-11-24 03:00:00 11.5 24 Noroeste 37 Noroeste 0 -- -- 58
2019-11-24 02:00:00 10.2 15 Noroeste 23 Oeste 0 -- -- 63
2019-11-24 01:00:00 11 14 Noroeste 25 Oeste 0 -- -- 61
2019-11-24 00:00:00 12 13 Oeste 32 Noroeste 0 -- -- 57
2019-11-23 23:00:00 12.8 18 Oeste 47 Noroeste 0 -- -- 54
2019-11-23 22:00:00 12.8 23 Noroeste 45 Noroeste 0 -- -- 54
2019-11-23 21:00:00 12.9 20 Noroeste 40 Noroeste 0 -- -- 52
2019-11-23 20:00:00 13.4 18 Oeste 41 Oeste 0 -- -- 49
2019-11-23 19:00:00 13.3 10 Oeste 40 Noroeste 0 -- -- 48
2019-11-23 18:00:00 14.7 26 Oeste 44 Oeste 0 -- -- 44
2019-11-23 17:00:00 15.5 22 Oeste 54 Oeste 0 -- -- 42
2019-11-23 16:00:00 16.1 33 Noroeste 60 Oeste 0 -- -- 40
2019-11-23 15:00:00 16.2 33 Oeste 58 Oeste 0 -- -- 40
2019-11-23 14:00:00 16 35 Oeste 59 Noroeste 0 -- -- 45
2019-11-23 13:00:00 14.5 41 Oeste 70 Noroeste 0 -- -- 45
2019-11-23 12:00:00 15.2 37 Oeste 76 Noroeste 0.2 -- -- 46
2019-11-23 11:00:00 14.6 39 Noroeste 61 Noroeste 0 -- -- 50
2019-11-23 10:00:00 13.5 25 Noroeste 48 Noroeste 0 -- -- 54
2019-11-23 09:00:00 12.3 25 Noroeste 57 Noroeste 0 -- -- 60
2019-11-23 08:00:00 11.2 23 Noroeste 45 Noroeste 0 -- -- 69
2019-11-23 07:00:00 12.6 30 Noroeste 60 Noroeste 0 -- -- 62
2019-11-23 06:00:00 12 21 Oeste 53 Noroeste 0 -- -- 70
2019-11-23 05:00:00 10 13 Noroeste 18 Noroeste 0 -- -- 81
2019-11-23 04:00:00 8.9 12 Oeste 22 Noroeste 0 -- -- 96
2019-11-23 03:00:00 9.5 6 Noroeste 13 Noroeste 0 -- -- 99
2019-11-23 02:00:00 10.5 8 Noroeste 14 Noroeste 0 -- -- 100
2019-11-23 01:00:00 11.1 6 Oeste 13 Oeste 0 -- -- 100
2019-11-23 00:00:00 11.3 4 Noroeste 12 Oeste 0 -- -- 99
2019-11-22 23:00:00 11.3 5 Noroeste 9 Noroeste 0 -- -- 98
2019-11-22 22:00:00 12 0 Calma 6 Sur 0.2 -- -- 98
2019-11-22 21:00:00 12.5 4 Norte 13 Nordeste 0.4 -- -- 99
2019-11-22 20:00:00 12.4 5 Nordeste 10 Nordeste 2.8 -- -- 98
2019-11-22 19:00:00 12.5 2 Este 8 Este 1.8 -- -- 97
2019-11-22 18:00:00 12.6 4 Nordeste 12 Este 1.4 -- -- 97
2019-11-22 17:00:00 12.7 5 Este 13 Este 0.2 -- -- 96
2019-11-22 16:00:00 12.8 7 Este 12 Este 0.4 -- -- 95
2019-11-22 15:00:00 13.2 7 Este 13 Este 0 -- -- 91
2019-11-22 14:00:00 12.6 0 Calma 11 Este 0 -- -- 94
2019-11-22 13:00:00 11.8 5 Este 10 Este 0 -- -- 96
2019-11-22 12:00:00 10.9 0 Calma 6 Noroeste 0.8 -- -- 98
2019-11-22 11:00:00 10.1 2 Sur 6 Sudoeste 0.2 -- -- 98
2019-11-22 10:00:00 9.1 3 Oeste 6 Noroeste 0 -- -- 99
2019-11-22 09:00:00 8.2 2 Oeste 5 Oeste 0 -- -- 98
2019-11-22 08:00:00 7.8 2 Oeste 13 Norte 0 -- -- 97
2019-11-22 07:00:00 7.7 10 Norte 13 Norte 0 -- -- 98
2019-11-22 06:00:00 7.6 0 Calma 8 Oeste 0 -- -- 96
2019-11-22 05:00:00 8.1 4 Norte 10 Sudoeste 0 -- -- 96
2019-11-22 04:00:00 8 3 Noroeste 8 Noroeste 0 -- -- 95
2019-11-22 03:00:00 8.7 6 Norte 8 Norte 0 -- -- 94
2019-11-22 02:00:00 9.7 3 Oeste 10 Norte 0 -- -- 94
2019-11-22 01:00:00 10.1 5 Norte 10 Norte 0 -- -- 93
2019-11-22 00:00:00 10.5 4 Noroeste 6 Norte 0 -- -- 93
2019-11-21 23:00:00 10.8 3 Norte 5 Norte 0.2 -- -- 91
2019-11-21 22:00:00 11.1 0 Calma 3 Noroeste 0.4 -- -- 89
2019-11-21 21:00:00 11.3 3 Norte 5 Norte 0 -- -- 84
2019-11-21 20:00:00 11.6 2 Norte 7 Este 0 -- -- 82
2019-11-21 19:00:00 12.4 4 Nordeste 8 Este 0 -- -- 77
2019-11-21 18:00:00 13.2 4 Este 5 Este 0 -- -- 76
2019-11-21 17:00:00 14.5 5 Sudeste 9 Sudeste 0 -- -- 71
2019-11-21 16:00:00 14.7 0 Calma 9 Sudoeste 0 -- -- 66
2019-11-21 15:00:00 13.9 2 Sudoeste 10 Oeste 0 -- -- 74
2019-11-21 14:00:00 12.7 5 Oeste 10 Oeste 0 -- -- 78
2019-11-21 13:00:00 12.5 3 Oeste 17 Oeste 0 -- -- 78
2019-11-21 12:00:00 11.8 8 Oeste 14 Oeste 0 -- -- 80
2019-11-21 11:00:00 10.1 6 Oeste 9 Oeste 0 -- -- 87
2019-11-21 10:00:00 8.8 0 Calma 13 Oeste 0 -- -- 90
2019-11-21 09:00:00 7.7 7 Noroeste 14 Noroeste 0 -- -- 92
2019-11-21 08:00:00 7.3 5 Noroeste 19 Noroeste 0 -- -- 89
2019-11-21 07:00:00 7.2 3 Noroeste 19 Norte 0 -- -- 90
2019-11-21 06:00:00 7.2 4 Sudoeste 14 Sudoeste 0 -- -- 91
2019-11-21 05:00:00 7.7 6 Oeste 20 Noroeste 0 -- -- 90
2019-11-21 04:00:00 8.1 12 Norte 16 Noroeste 0 -- -- 89
2019-11-21 03:00:00 8.1 10 Noroeste 14 Noroeste 0 -- -- 90
2019-11-21 02:00:00 7.9 9 Norte 13 Norte 0 -- -- 93
2019-11-21 01:00:00 7.5 6 Norte 9 Norte 0 -- -- 92
2019-11-21 00:00:00 8.9 2 Noroeste 8 Noroeste 0 -- -- 92
2019-11-20 23:00:00 9.2 5 Norte 8 Noroeste 0 -- -- 94
2019-11-20 22:00:00 10.1 0 Calma 8 Norte 0 -- -- 92
2019-11-20 21:00:00 10.6 5 Noroeste 6 Noroeste 0 -- -- 91
2019-11-20 20:00:00 11.3 0 Calma 8 Noroeste 0.2 -- -- 87
2019-11-20 19:00:00 12.1 6 Oeste 10 Sudoeste 0.4 -- -- 81
2019-11-20 18:00:00 13.3 2 Sudeste 5 Este 0 -- -- 68
2019-11-20 17:00:00 14.3 3 Este 10 Sudeste 0 -- -- 64
2019-11-20 16:00:00 15.5 5 Sudeste 13 Sudeste 0 -- -- 57
2019-11-20 15:00:00 15.7 3 Sudoeste 12 Sur 0 -- -- 55
2019-11-20 14:00:00 15 3 Sudoeste 12 Oeste 0 -- -- 55
2019-11-20 13:00:00 14.4 5 Sudoeste 12 Sudoeste 0 -- -- 56
2019-11-20 12:00:00 12.5 5 Noroeste 18 Norte 0 -- -- 61
2019-11-20 11:00:00 10.4 11 Noroeste 19 Noroeste 0 -- -- 66
2019-11-20 10:00:00 8.3 9 Noroeste 18 Noroeste 0 -- -- 74
2019-11-20 09:00:00 5 4 Noroeste 10 Noroeste 0 -- -- 87
2019-11-20 08:00:00 4.7 0 Calma 13 Noroeste 0 -- -- 82
2019-11-20 07:00:00 5.2 6 Noroeste 14 Noroeste 0 -- -- 81
2019-11-20 06:00:00 6.1 8 Noroeste 19 Norte 0 -- -- 78
2019-11-20 05:00:00 6.2 6 Noroeste 15 Noroeste 0 -- -- 79
2019-11-20 04:00:00 5.7 6 Noroeste 11 Norte 0 -- -- 82
2019-11-20 03:00:00 5.3 3 Oeste 5 Sudoeste 0 -- -- 86
2019-11-20 02:00:00 5.4 3 Sudoeste 7 Sudoeste 0 -- -- 85
2019-11-20 01:00:00 5.7 5 Noroeste 8 Noroeste 0 -- -- 81
2019-11-20 00:00:00 5.8 3 Norte 8 Noroeste 0 -- -- 80
2019-11-19 23:00:00 7 0 Calma 7 Noroeste 0 -- -- 84
2019-11-19 22:00:00 7.9 4 Norte 7 Noroeste 0 -- -- 83
2019-11-19 21:00:00 8.4 3 Noroeste 8 Noroeste 0 -- -- 78
2019-11-19 20:00:00 8.8 8 Noroeste 10 Norte 0 -- -- 73
2019-11-19 19:00:00 9.4 7 Noroeste 10 Norte 0 -- -- 69
2019-11-19 18:00:00 11.7 0 Calma 5 Noroeste 0 -- -- 59
2019-11-19 17:00:00 14.2 3 Noroeste 16 Noroeste 0 -- -- 50
2019-11-19 16:00:00 15.6 7 Noroeste 20 Oeste 0 -- -- 42
2019-11-19 15:00:00 15.1 12 Oeste 27 Noroeste 0 -- -- 43
2019-11-19 14:00:00 14.7 14 Noroeste 33 Noroeste 0 -- -- 44
2019-11-19 13:00:00 13.4 15 Noroeste 36 Noroeste 0 -- -- 49
2019-11-19 12:00:00 11.8 20 Noroeste 37 Oeste 0 -- -- 51
2019-11-19 11:00:00 11.1 24 Oeste 36 Oeste 0 -- -- 51
2019-11-19 10:00:00 9.5 22 Noroeste 39 Noroeste 0 -- -- 56
2019-11-19 09:00:00 8.4 19 Noroeste 32 Noroeste 0 -- -- 60
2019-11-19 08:00:00 7.4 13 Oeste 31 Noroeste 0 -- -- 64
2019-11-19 07:00:00 7.5 17 Noroeste 27 Noroeste 0 -- -- 64
2019-11-19 06:00:00 7.4 17 Noroeste 29 Noroeste 0 -- -- 65
2019-11-19 05:00:00 7.7 13 Oeste 29 Oeste 0 -- -- 64
2019-11-19 04:00:00 6.7 8 Oeste 16 Oeste 0 -- -- 69
2019-11-19 03:00:00 7.2 5 Oeste 19 Oeste 0 -- -- 67
2019-11-19 02:00:00 7.2 6 Noroeste 16 Noroeste 0 -- -- 68
2019-11-19 01:00:00 8.5 7 Noroeste 20 Noroeste 0 -- -- 62
2019-11-19 00:00:00 8.6 7 Oeste 15 Oeste 0 -- -- 65
2019-11-18 23:00:00 9.6 10 Oeste 17 Oeste 0 -- -- 62
2019-11-18 22:00:00 10.3 9 Noroeste 25 Noroeste 0 -- -- 59
2019-11-18 21:00:00 11.3 18 Noroeste 31 Noroeste 0 -- -- 53
2019-11-18 20:00:00 10.7 16 Noroeste 23 Noroeste 0 -- -- 55
2019-11-18 19:00:00 11.5 11 Noroeste 29 Oeste 0 -- -- 51
2019-11-18 18:00:00 12.5 14 Noroeste 32 Noroeste 0 -- -- 50
2019-11-18 17:00:00 13.7 18 Noroeste 32 Noroeste 0 -- -- 49
2019-11-18 16:00:00 14.3 19 Noroeste 41 Noroeste 0 -- -- 50
2019-11-18 15:00:00 14.8 24 Norte 39 Norte 0 -- -- 50
2019-11-18 14:00:00 14.8 20 Norte 38 Noroeste 0 -- -- 52
2019-11-18 13:00:00 13.9 22 Norte 36 Noroeste 0 -- -- 57
2019-11-18 12:00:00 13 23 Noroeste 40 Noroeste 0 -- -- 60
2019-11-18 11:00:00 12 24 Noroeste 36 Noroeste 0 -- -- 64
2019-11-18 10:00:00 10.7 11 Noroeste 30 Noroeste 0 -- -- 67
2019-11-18 09:00:00 9.5 14 Noroeste 29 Noroeste 0 -- -- 74
2019-11-18 08:00:00 9.4 16 Noroeste 27 Noroeste 0 -- -- 80
2019-11-18 07:00:00 9.6 8 Oeste 27 Noroeste 0 -- -- 84
2019-11-18 06:00:00 9.3 14 Noroeste 23 Noroeste 0 -- -- 90
2019-11-18 05:00:00 10.2 10 Oeste 18 Oeste 0.4 -- -- 95
2019-11-18 04:00:00 10.5 5 Oeste 13 Noroeste 0.6 -- -- 94
2019-11-18 03:00:00 10.6 2 Noroeste 10 Sudeste 0.4 -- -- 93
2019-11-18 02:00:00 10.9 2 Sudoeste 10 Nordeste 0.8 -- -- 91
2019-11-18 01:00:00 10.8 5 Nordeste 9 Nordeste 0.4 -- -- 87
2019-11-18 00:00:00 11.4 6 Norte 14 Noroeste 0 -- -- 82
2019-11-17 23:00:00 11 8 Oeste 13 Oeste 0 -- -- 71
2019-11-17 22:00:00 11.1 0 Calma 11 Norte 0 -- -- 71
2019-11-17 21:00:00 11.1 5 Noroeste 10 Noroeste 0 -- -- 68
2019-11-17 20:00:00 11.5 6 Oeste 10 Oeste 0 -- -- 65
2019-11-17 19:00:00 12.5 3 Noroeste 14 Noroeste 0 -- -- 61
2019-11-17 18:00:00 13.5 9 Noroeste 24 Noroeste 0 -- -- 57
2019-11-17 17:00:00 15.4 17 Noroeste 26 Noroeste 0 -- -- 51
2019-11-17 16:00:00 16.4 17 Noroeste 25 Noroeste 0 -- -- 47
2019-11-17 15:00:00 15.5 11 Oeste 23 Oeste 0 -- -- 43
2019-11-17 14:00:00 15.6 10 Oeste 24 Oeste 0 -- -- 39
2019-11-17 13:00:00 14.6 12 Sudoeste 28 Noroeste 0 -- -- 43
2019-11-17 12:00:00 13.3 16 Oeste 31 Noroeste 0 -- -- 46
2019-11-17 11:00:00 11.5 16 Oeste 28 Oeste 0 -- -- 52
2019-11-17 10:00:00 9.2 10 Oeste 24 Oeste 0 -- -- 60
2019-11-17 09:00:00 7.1 13 Oeste 19 Oeste 0 -- -- 63
2019-11-17 08:00:00 6 11 Oeste 18 Oeste 0 -- -- 63
2019-11-17 07:00:00 6.4 12 Oeste 23 Noroeste 0 -- -- 65
2019-11-17 06:00:00 6.8 13 Noroeste 22 Noroeste 0 -- -- 63
2019-11-17 05:00:00 4.1 2 Sudoeste 8 Sur 0 -- -- 69
2019-11-17 04:00:00 6.2 3 Sudoeste 15 Oeste 0 -- -- 63
2019-11-17 03:00:00 7 9 Oeste 16 Oeste 0 -- -- 60
2019-11-17 02:00:00 7.8 6 Oeste 32 Noroeste 0 -- -- 59
2019-11-17 01:00:00 8.8 19 Noroeste 32 Noroeste 0 -- -- 57
2019-11-17 00:00:00 8.7 12 Sudoeste 22 Sudoeste 0 -- -- 57
2019-11-16 23:00:00 9.6 11 Oeste 33 Noroeste 0 -- -- 53
2019-11-16 22:00:00 9.8 12 Oeste 33 Noroeste 0 -- -- 52
2019-11-16 21:00:00 10.5 12 Oeste 34 Noroeste 0 -- -- 49
2019-11-16 20:00:00 11.3 15 Noroeste 29 Norte 0 -- -- 46
2019-11-16 19:00:00 11.5 13 Noroeste 26 Noroeste 0 -- -- 44
2019-11-16 18:00:00 12.2 8 Noroeste 23 Noroeste 0 -- -- 39
2019-11-16 17:00:00 13.6 11 Noroeste 37 Noroeste 0 -- -- 35
2019-11-16 16:00:00 14.3 23 Noroeste 37 Noroeste 0 -- -- 35
2019-11-16 15:00:00 14 26 Noroeste 41 Noroeste 0 -- -- 40
2019-11-16 14:00:00 13.6 30 Noroeste 49 Noroeste 0 -- -- 42
2019-11-16 13:00:00 13.1 26 Noroeste 42 Noroeste 0 -- -- 45
2019-11-16 12:00:00 12.2 26 Noroeste 38 Norte 0 -- -- 47
2019-11-16 11:00:00 10.7 18 Noroeste 36 Norte 0 -- -- 55
2019-11-16 10:00:00 9.5 20 Noroeste 43 Noroeste 0 -- -- 58
2019-11-16 09:00:00 8.5 28 Noroeste 48 Noroeste 0 -- -- 60
2019-11-16 08:00:00 7.8 24 Noroeste 37 Noroeste 0 -- -- 62
2019-11-16 07:00:00 8.2 26 Noroeste 39 Noroeste 0 -- -- 60
2019-11-16 06:00:00 8.4 22 Noroeste 40 Noroeste 0 -- -- 60
2019-11-16 05:00:00 8.5 21 Noroeste 35 Noroeste 0 -- -- 59
2019-11-16 04:00:00 9 19 Noroeste 35 Noroeste 0 -- -- 57
2019-11-16 03:00:00 9.2 26 Noroeste 42 Noroeste 0 -- -- 57
2019-11-16 02:00:00 9.1 24 Noroeste 39 Noroeste 0 -- -- 58
2019-11-16 01:00:00 9.1 22 Noroeste 37 Noroeste 0 -- -- 58
2019-11-16 00:00:00 9 22 Noroeste 37 Noroeste 0 -- -- 58
2019-11-15 23:00:00 8.8 14 Noroeste 40 Noroeste 0 -- -- 59
2019-11-15 22:00:00 9.2 19 Noroeste 34 Noroeste 0 -- -- 57
2019-11-15 21:00:00 9.1 12 Noroeste 30 Noroeste 0 -- -- 57
2019-11-15 20:00:00 8.8 9 Oeste 17 Oeste 0 -- -- 57
2019-11-15 19:00:00 9.6 8 Oeste 22 Noroeste 0 -- -- 54
2019-11-15 18:00:00 10.9 10 Noroeste 27 Noroeste 0 -- -- 50
2019-11-15 17:00:00 12.4 18 Noroeste 35 Noroeste 0 -- -- 45
2019-11-15 16:00:00 13.4 22 Noroeste 39 Noroeste 0 -- -- 42
2019-11-15 15:00:00 13.5 23 Noroeste 39 Noroeste 0 -- -- 45
2019-11-15 14:00:00 13 22 Noroeste 41 Noroeste 0 -- -- 46
2019-11-15 13:00:00 12 22 Noroeste 37 Noroeste 0 -- -- 52
2019-11-15 12:00:00 12.2 18 Noroeste 38 Noroeste 0 -- -- 54
2019-11-15 11:00:00 11.1 18 Noroeste 30 Noroeste 0 -- -- 58
2019-11-15 10:00:00 10.4 17 Noroeste 28 Noroeste 0 -- -- 60
2019-11-15 09:00:00 8.7 8 Noroeste 18 Noroeste 0 -- -- 67
2019-11-15 08:00:00 7.6 5 Noroeste 15 Noroeste 0 -- -- 69
2019-11-15 07:00:00 8.7 9 Noroeste 21 Noroeste 0 -- -- 64
2019-11-15 06:00:00 8.2 9 Noroeste 28 Noroeste 0 -- -- 68
2019-11-15 05:00:00 9.8 15 Noroeste 30 Noroeste 0 -- -- 60
2019-11-15 04:00:00 10.4 15 Noroeste 32 Noroeste 0 -- -- 59
2019-11-15 03:00:00 10.5 7 Sudoeste 35 Oeste 0 -- -- 57
2019-11-15 02:00:00 10 11 Oeste 36 Noroeste 0 -- -- 57
2019-11-15 01:00:00 11.2 26 Noroeste 42 Noroeste 0 -- -- 55
2019-11-15 00:00:00 10.8 16 Noroeste 29 Noroeste 0 -- -- 52
2019-11-14 23:00:00 9.9 13 Noroeste 26 Oeste 0 -- -- 58
2019-11-14 22:00:00 10.3 16 Noroeste 29 Noroeste 0 -- -- 58
2019-11-14 21:00:00 10.3 19 Oeste 30 Oeste 0 -- -- 59
2019-11-14 20:00:00 9.8 10 Noroeste 17 Noroeste 0 -- -- 62
2019-11-14 19:00:00 10.3 10 Noroeste 19 Oeste 0 -- -- 60
2019-11-14 18:00:00 10.8 5 Noroeste 16 Noroeste 0 -- -- 68
2019-11-14 17:00:00 12.4 14 Noroeste 33 Noroeste 0 -- -- 57
2019-11-14 16:00:00 11.2 14 Oeste 46 Noroeste 0 -- -- 64
2019-11-14 15:00:00 9.7 29 Noroeste 51 Noroeste 1 -- -- 81
2019-11-14 14:00:00 13 25 Norte 44 Norte 0 -- -- 69
2019-11-14 13:00:00 15.9 13 Oeste 27 Sudoeste 0 -- -- 50
2019-11-14 12:00:00 15.3 9 Oeste 18 Oeste 0 -- -- 57
2019-11-14 11:00:00 14.7 10 Noroeste 25 Noroeste 0 -- -- 55
2019-11-14 10:00:00 14.3 15 Oeste 29 Oeste 0 -- -- 59
2019-11-14 09:00:00 13.7 16 Oeste 29 Oeste 0 -- -- 61
2019-11-14 08:00:00 13.1 12 Noroeste 27 Oeste 0 -- -- 66
2019-11-14 07:00:00 10 9 Oeste 14 Oeste 0 -- -- 85
2019-11-14 06:00:00 8.9 4 Norte 9 Noroeste 0 -- -- 88
2019-11-14 05:00:00 9.6 4 Noroeste 6 Noroeste 0 -- -- 92
2019-11-14 04:00:00 10.3 2 Noroeste 8 Norte 0 -- -- 92
2019-11-14 03:00:00 10.4 5 Norte 10 Norte 0 -- -- 93
2019-11-14 02:00:00 10.6 3 Norte 10 Noroeste 0 -- -- 91
2019-11-14 01:00:00 11.4 5 Noroeste 10 Norte 0 -- -- 86
2019-11-14 00:00:00 13.3 4 Norte 9 Sudeste 0 -- -- 82
2019-11-13 23:00:00 15.5 6 Sur 12 Sudeste 0 -- -- 73
2019-11-13 22:00:00 16.4 4 Oeste 11 Noroeste 0 -- -- 63
2019-11-13 21:00:00 17.1 7 Norte 15 Noroeste 0 -- -- 60
2019-11-13 20:00:00 17.8 5 Oeste 14 Noroeste 0 -- -- 58
2019-11-13 19:00:00 18.8 10 Noroeste 32 Norte 0 -- -- 55
2019-11-13 18:00:00 19.6 22 Noroeste 33 Noroeste 0 -- -- 51
2019-11-13 17:00:00 20.3 18 Noroeste 37 Norte 0 -- -- 49
2019-11-13 16:00:00 21.4 26 Norte 55 Noroeste 0 -- -- 46
2019-11-13 15:00:00 21.9 27 Noroeste 51 Noroeste 0 -- -- 45
2019-11-13 14:00:00 21.5 27 Noroeste 60 Noroeste 0 -- -- 47
2019-11-13 13:00:00 21.4 31 Noroeste 57 Noroeste 0 -- -- 47
2019-11-13 12:00:00 20.4 31 Noroeste 53 Noroeste 0 -- -- 49
2019-11-13 11:00:00 18.4 27 Noroeste 46 Noroeste 0 -- -- 55
2019-11-13 10:00:00 15.5 6 Sudoeste 11 Oeste 0 -- -- 64
2019-11-13 09:00:00 11.4 2 Oeste 6 Oeste 0 -- -- 74
2019-11-13 08:00:00 10.9 0 Calma 9 Noroeste 0 -- -- 75
2019-11-13 07:00:00 12 4 Oeste 23 Noroeste 0 -- -- 70
2019-11-13 06:00:00 12.3 15 Noroeste 22 Noroeste 0 -- -- 70
2019-11-13 05:00:00 12.1 8 Oeste 17 Oeste 0 -- -- 60
2019-11-13 04:00:00 12.6 5 Oeste 13 Noroeste 0 -- -- 57
2019-11-13 03:00:00 12.9 4 Oeste 16 Noroeste 0 -- -- 55
2019-11-13 02:00:00 13 12 Noroeste 18 Noroeste 0 -- -- 53
2019-11-13 01:00:00 12.8 12 Noroeste 18 Noroeste 0 -- -- 53
2019-11-13 00:00:00 12.9 10 Noroeste 19 Oeste 0 -- -- 51
2019-11-12 23:00:00 12.9 9 Oeste 24 Noroeste 0 -- -- 52
2019-11-12 22:00:00 13.6 19 Noroeste 30 Noroeste 0 -- -- 49
2019-11-12 21:00:00 13.4 12 Noroeste 26 Noroeste 0 -- -- 48
2019-11-12 20:00:00 14.5 14 Noroeste 33 Noroeste 0 -- -- 44
2019-11-12 19:00:00 14.9 18 Noroeste 31 Noroeste 0 -- -- 43
2019-11-12 18:00:00 15.7 13 Noroeste 33 Noroeste 0 -- -- 42
2019-11-12 17:00:00 16.9 23 Noroeste 41 Noroeste 0 -- -- 39
2019-11-12 16:00:00 17.5 27 Norte 46 Noroeste 0 -- -- 38
2019-11-12 15:00:00 17.3 27 Noroeste 43 Noroeste 0 -- -- 39
2019-11-12 14:00:00 17.3 25 Noroeste 40 Noroeste 0 -- -- 39
2019-11-12 13:00:00 16.5 24 Noroeste 39 Noroeste 0 -- -- 38
2019-11-12 12:00:00 15.7 18 Noroeste 38 Noroeste 0 -- -- 41
2019-11-12 11:00:00 13.9 19 Noroeste 35 Noroeste 0 -- -- 44
2019-11-12 10:00:00 12.3 18 Noroeste 31 Oeste 0 -- -- 47
2019-11-12 09:00:00 11.1 9 Noroeste 30 Norte 0 -- -- 48
2019-11-12 08:00:00 9.5 6 Oeste 23 Noroeste 0 -- -- 55
2019-11-12 07:00:00 9.1 8 Sudoeste 22 Sudoeste 0 -- -- 59
2019-11-12 06:00:00 9.8 14 Oeste 29 Noroeste 0 -- -- 57
2019-11-12 05:00:00 10.2 15 Noroeste 38 Noroeste 0 -- -- 57
2019-11-12 04:00:00 10.8 11 Oeste 24 Sudoeste 0 -- -- 58
2019-11-12 03:00:00 11 7 Noroeste 19 Oeste 0 -- -- 60
2019-11-12 02:00:00 11.8 6 Oeste 27 Oeste 0 -- -- 62
2019-11-12 01:00:00 12.2 8 Sudoeste 24 Sudoeste 0 -- -- 62
2019-11-12 00:00:00 12.6 7 Norte 33 Noroeste 0 -- -- 62
2019-11-11 23:00:00 13.3 13 Noroeste 31 Noroeste 0 -- -- 61
2019-11-11 22:00:00 13.7 5 Noroeste 31 Noroeste 0 -- -- 61
2019-11-11 21:00:00 14.4 18 Noroeste 35 Noroeste 0 -- -- 58
2019-11-11 20:00:00 14.7 14 Norte 35 Norte 0 -- -- 57
2019-11-11 19:00:00 15.1 27 Norte 45 Norte 0 -- -- 54
2019-11-11 18:00:00 15.5 28 Norte 47 Norte 0 -- -- 52
2019-11-11 17:00:00 16.1 29 Noroeste 53 Noroeste 0 -- -- 47
2019-11-11 16:00:00 16.5 33 Noroeste 49 Noroeste 0 -- -- 47
2019-11-11 15:00:00 16 39 Noroeste 60 Noroeste 0 -- -- 45
2019-11-11 14:00:00 15.6 38 Noroeste 59 Noroeste 0 -- -- 45
2019-11-11 13:00:00 14.9 29 Noroeste 43 Noroeste 0 -- -- 49
2019-11-11 12:00:00 13.5 30 Noroeste 46 Noroeste 0 -- -- 51
2019-11-11 11:00:00 12.2 31 Noroeste 57 Noroeste 0 -- -- 54
2019-11-11 10:00:00 11.9 35 Noroeste 56 Noroeste 0 -- -- 53
2019-11-11 09:00:00 11.1 32 Noroeste 51 Noroeste 0 -- -- 54
2019-11-11 08:00:00 10.6 35 Noroeste 58 Noroeste 0 -- -- 54
2019-11-11 07:00:00 9 8 Oeste 26 Noroeste 0 -- -- 58
2019-11-11 06:00:00 8.9 9 Oeste 28 Noroeste 0 -- -- 59
2019-11-11 05:00:00 9.1 12 Oeste 36 Norte 0 -- -- 57
2019-11-11 04:00:00 9.4 24 Noroeste 42 Noroeste 0 -- -- 56
2019-11-11 03:00:00 9.7 29 Noroeste 59 Noroeste 0 -- -- 55
2019-11-11 02:00:00 10.1 32 Noroeste 61 Noroeste 0 -- -- 53
2019-11-11 01:00:00 10.7 36 Noroeste 59 Noroeste 0 -- -- 51
2019-11-11 00:00:00 11.1 40 Noroeste 65 Noroeste 0 -- -- 52
2019-11-10 23:00:00 11.6 38 Noroeste 59 Noroeste 0 -- -- 51
2019-11-10 22:00:00 11.9 30 Noroeste 53 Noroeste 0 -- -- 52
2019-11-10 21:00:00 12.5 36 Noroeste 63 Noroeste 0 -- -- 50
2019-11-10 20:00:00 13.1 42 Noroeste 63 Noroeste 0 -- -- 46
2019-11-10 19:00:00 13.3 38 Noroeste 61 Noroeste 0 -- -- 45
2019-11-10 18:00:00 13.9 47 Noroeste 74 Noroeste 0 -- -- 42
2019-11-10 17:00:00 14.7 40 Noroeste 59 Noroeste 0 -- -- 40
2019-11-10 16:00:00 15.5 35 Noroeste 60 Noroeste 0 -- -- 39
2019-11-10 15:00:00 15.7 32 Noroeste 55 Noroeste 0 -- -- 36
2019-11-10 14:00:00 15.5 38 Noroeste 57 Norte 0 -- -- 35
2019-11-10 13:00:00 15 37 Noroeste 58 Norte 0 -- -- 37
2019-11-10 12:00:00 14.2 34 Noroeste 60 Noroeste 0 -- -- 41
2019-11-10 11:00:00 13.4 36 Noroeste 66 Noroeste 0 -- -- 47
2019-11-10 10:00:00 13 37 Noroeste 59 Noroeste 0 -- -- 52
2019-11-10 09:00:00 11.8 42 Noroeste 64 Noroeste 0 -- -- 56
2019-11-10 08:00:00 12.4 34 Noroeste 59 Noroeste 0.2 -- -- 54
2019-11-10 07:00:00 13.4 34 Norte 63 Noroeste 0 -- -- 49
2019-11-10 06:00:00 14 31 Noroeste 60 Noroeste 0 -- -- 54
2019-11-10 05:00:00 14.2 24 Noroeste 41 Noroeste 0 -- -- 61
2019-11-10 04:00:00 14.1 19 Noroeste 42 Noroeste 0 -- -- 59
2019-11-10 03:00:00 12.8 12 Oeste 28 Noroeste 0 -- -- 69
2019-11-10 02:00:00 13.6 18 Noroeste 30 Noroeste 0 -- -- 65
2019-11-10 01:00:00 13.1 17 Noroeste 28 Noroeste 0 -- -- 67
2019-11-10 00:00:00 12.8 19 Noroeste 28 Noroeste 0 -- -- 69
2019-11-09 23:00:00 11.7 16 Noroeste 30 Noroeste 0 -- -- 76
2019-11-09 22:00:00 11.9 13 Oeste 40 Noroeste 0 -- -- 75
2019-11-09 21:00:00 14.4 23 Noroeste 50 Noroeste 0 -- -- 54
2019-11-09 20:00:00 14.4 15 Noroeste 25 Noroeste 0 -- -- 48
2019-11-09 19:00:00 14.1 3 Oeste 17 Sudoeste 0 -- -- 57
2019-11-09 18:00:00 15.8 9 Oeste 19 Oeste 0 -- -- 46
2019-11-09 17:00:00 17.7 7 Oeste 19 Sudoeste 0 -- -- 40
2019-11-09 16:00:00 18 6 Sudoeste 22 Oeste 0 -- -- 36
2019-11-09 15:00:00 18.7 11 Oeste 33 Noroeste 0 -- -- 34
2019-11-09 14:00:00 17.6 18 Noroeste 32 Noroeste 0 -- -- 36
2019-11-09 13:00:00 16.4 17 Noroeste 38 Noroeste 0 -- -- 41
2019-11-09 12:00:00 14.7 28 Noroeste 47 Noroeste 0 -- -- 44
2019-11-09 11:00:00 12.9 27 Noroeste 43 Noroeste 0 -- -- 50
2019-11-09 10:00:00 11.6 21 Noroeste 40 Noroeste 0 -- -- 54
2019-11-09 09:00:00 11.5 22 Noroeste 49 Noroeste 0 -- -- 52
2019-11-09 08:00:00 11.4 18 Noroeste 38 Noroeste 0 -- -- 51
2019-11-09 07:00:00 11 20 Noroeste 40 Noroeste 0 -- -- 52
2019-11-09 06:00:00 11.2 29 Noroeste 53 Noroeste 0 -- -- 51
2019-11-09 05:00:00 11.6 32 Noroeste 50 Noroeste 0 -- -- 50
2019-11-09 04:00:00 12 21 Noroeste 52 Noroeste 0 -- -- 49
2019-11-09 03:00:00 11.3 15 Noroeste 33 Noroeste 0 -- -- 51
2019-11-09 02:00:00 9.9 4 Oeste 15 Oeste 0 -- -- 56
2019-11-09 01:00:00 11.4 4 Oeste 26 Noroeste 0 -- -- 51
2019-11-09 00:00:00 12.1 13 Noroeste 30 Noroeste 0 -- -- 50
2019-11-08 23:00:00 11.7 10 Oeste 36 Noroeste 0 -- -- 53
2019-11-08 22:00:00 12.4 27 Noroeste 41 Noroeste 0 -- -- 51
2019-11-08 21:00:00 12.9 21 Noroeste 35 Noroeste 0 -- -- 49
2019-11-08 20:00:00 12.3 15 Noroeste 32 Noroeste 0 -- -- 49
2019-11-08 19:00:00 13.6 14 Noroeste 24 Noroeste 0 -- -- 44
2019-11-08 18:00:00 14.6 11 Noroeste 31 Oeste 0 -- -- 41
2019-11-08 17:00:00 15.9 19 Noroeste 39 Norte 0 -- -- 36
2019-11-08 16:00:00 16.6 19 Noroeste 41 Norte 0 -- -- 36
2019-11-08 15:00:00 16.3 24 Norte 50 Noroeste 0 -- -- 38
2019-11-08 14:00:00 15.9 29 Noroeste 48 Noroeste 0 -- -- 40
2019-11-08 13:00:00 14.9 34 Noroeste 51 Noroeste 0 -- -- 40
2019-11-08 12:00:00 14.1 23 Noroeste 57 Noroeste 0 -- -- 44
2019-11-08 11:00:00 13.1 39 Noroeste 61 Noroeste 0 -- -- 45
2019-11-08 10:00:00 12.1 35 Noroeste 59 Noroeste 0 -- -- 50
2019-11-08 09:00:00 11.1 22 Noroeste 46 Noroeste 0 -- -- 54
2019-11-08 08:00:00 10.6 23 Noroeste 39 Noroeste 0 -- -- 55
2019-11-08 07:00:00 10.3 11 Noroeste 29 Noroeste 0 -- -- 59
2019-11-08 06:00:00 11.2 16 Noroeste 36 Noroeste 0 -- -- 55
2019-11-08 05:00:00 10.8 21 Noroeste 34 Noroeste 0 -- -- 57
2019-11-08 04:00:00 10.1 13 Noroeste 21 Noroeste 0 -- -- 64
2019-11-08 03:00:00 11 4 Noroeste 27 Noroeste 0 -- -- 58
2019-11-08 02:00:00 12.2 10 Oeste 23 Noroeste 0 -- -- 52
2019-11-08 01:00:00 13.3 14 Noroeste 26 Noroeste 0 -- -- 48
2019-11-08 00:00:00 13.3 14 Oeste 32 Noroeste 0 -- -- 50
2019-11-07 23:00:00 14.5 18 Noroeste 36 Oeste 0 -- -- 47
2019-11-07 22:00:00 15 18 Noroeste 36 Noroeste 0 -- -- 49
2019-11-07 21:00:00 15.8 22 Noroeste 47 Noroeste 0 -- -- 48
2019-11-07 20:00:00 16.5 25 Noroeste 44 Noroeste 0 -- -- 49
2019-11-07 19:00:00 17.7 33 Noroeste 50 Noroeste 0 -- -- 46
2019-11-07 18:00:00 18.5 27 Noroeste 45 Noroeste 0 -- -- 47
2019-11-07 17:00:00 19.8 14 Noroeste 31 Oeste 0 -- -- 51
2019-11-07 16:00:00 20.3 10 Oeste 37 Noroeste 0 -- -- 57
2019-11-07 15:00:00 19.7 17 Noroeste 30 Noroeste 0 -- -- 56
2019-11-07 14:00:00 20.5 5 Oeste 17 Oeste 0 -- -- 49
2019-11-07 13:00:00 19.6 9 Oeste 18 Oeste 0 -- -- 49
2019-11-07 12:00:00 18.6 6 Oeste 17 Oeste 0 -- -- 52
2019-11-07 11:00:00 15.9 8 Oeste 15 Oeste 0 -- -- 57
2019-11-07 10:00:00 13.4 9 Oeste 18 Oeste 0 -- -- 62
2019-11-07 09:00:00 10.9 6 Sudoeste 15 Oeste 0 -- -- 70
2019-11-07 08:00:00 10.1 8 Oeste 16 Oeste 0 -- -- 68
2019-11-07 07:00:00 9.8 12 Noroeste 19 Oeste 0 -- -- 67
2019-11-07 06:00:00 9.4 9 Oeste 16 Oeste 0 -- -- 70
2019-11-07 05:00:00 10 5 Noroeste 16 Noroeste 0 -- -- 67
2019-11-07 04:00:00 10.7 9 Noroeste 21 Noroeste 0 -- -- 65
2019-11-07 03:00:00 10.9 14 Noroeste 21 Noroeste 0 -- -- 64
2019-11-07 02:00:00 10.9 8 Noroeste 21 Oeste 0 -- -- 65
2019-11-07 01:00:00 11.6 12 Oeste 18 Oeste 0 -- -- 63
2019-11-07 00:00:00 12.7 8 Noroeste 27 Noroeste 0 -- -- 58
2019-11-06 23:00:00 12.7 15 Norte 22 Noroeste 0 -- -- 58
2019-11-06 22:00:00 12.8 4 Noroeste 13 Noroeste 0 -- -- 55
2019-11-06 21:00:00 14.5 8 Noroeste 29 Noroeste 0 -- -- 50
2019-11-06 20:00:00 15.1 17 Noroeste 34 Noroeste 0 -- -- 49
2019-11-06 19:00:00 15.8 17 Noroeste 30 Noroeste 0 -- -- 47
2019-11-06 18:00:00 16.8 17 Noroeste 33 Norte 0 -- -- 45
2019-11-06 17:00:00 18.3 20 Noroeste 35 Noroeste 0 -- -- 43
2019-11-06 16:00:00 19.6 17 Noroeste 41 Noroeste 0 -- -- 39
2019-11-06 15:00:00 19.3 28 Noroeste 41 Noroeste 0 -- -- 38
2019-11-06 14:00:00 19.1 20 Noroeste 40 Norte 0 -- -- 42
2019-11-06 13:00:00 18 32 Noroeste 48 Norte 0 -- -- 44
2019-11-06 12:00:00 17.4 21 Noroeste 37 Noroeste 0 -- -- 45
2019-11-06 11:00:00 16 16 Noroeste 32 Noroeste 0 -- -- 52
2019-11-06 10:00:00 14.9 18 Noroeste 35 Noroeste 0 -- -- 55
2019-11-06 09:00:00 13.8 14 Noroeste 24 Noroeste 0 -- -- 57
2019-11-06 08:00:00 12.7 14 Noroeste 37 Noroeste 0 -- -- 59
2019-11-06 07:00:00 13.4 20 Noroeste 34 Noroeste 0 -- -- 56
2019-11-06 06:00:00 13.8 23 Noroeste 47 Noroeste 0 -- -- 56
2019-11-06 05:00:00 14.4 33 Noroeste 56 Noroeste 0 -- -- 56
2019-11-06 04:00:00 14.4 30 Noroeste 45 Noroeste 0 -- -- 57
2019-11-06 03:00:00 14.1 23 Noroeste 40 Noroeste 0 -- -- 59
2019-11-06 02:00:00 12.4 9 Oeste 21 Sudoeste 0 -- -- 68
2019-11-06 01:00:00 11.9 5 Oeste 14 Oeste 0 -- -- 71
2019-11-06 00:00:00 12.3 10 Oeste 14 Oeste 0 -- -- 70